sensor_id;sensor_type;location;lat;lon;timestamp;P1;durP1;ratioP1;P2;durP2;ratioP2
56271;SDS011;42177;48.914;18.160;2023-04-01T00:01:41;4.1;;;2.8;;
56271;SDS011;42177;48.914;18.160;2023-04-01T00:06:40;4.1;;;2.8;;
56271;SDS011;42177;48.914;18.160;2023-04-01T00:11:40;5;;;3.1;;
56271;SDS011;42177;48.914;18.160;2023-04-01T00:16:41;5;;;3.1;;
56271;SDS011;42177;48.914;18.160;2023-04-01T00:21:40;5.6;;;3;;
56271;SDS011;42177;48.914;18.160;2023-04-01T00:26:40;5.6;;;3;;
56271;SDS011;42177;48.914;18.160;2023-04-01T00:31:40;7.7;;;3.5;;
56271;SDS011;42177;48.914;18.160;2023-04-01T00:36:41;7.7;;;3.5;;
56271;SDS011;42177;48.914;18.160;2023-04-01T00:41:40;6.6;;;4.4;;
56271;SDS011;42177;48.914;18.160;2023-04-01T00:46:41;6.6;;;4.4;;
56271;SDS011;42177;48.914;18.160;2023-04-01T00:51:41;10.6;;;4.4;;
56271;SDS011;42177;48.914;18.160;2023-04-01T00:56:41;10.6;;;4.4;;
56271;SDS011;42177;48.914;18.160;2023-04-01T01:01:41;6.7;;;4;;
56271;SDS011;42177;48.914;18.160;2023-04-01T01:06:43;6.7;;;4;;
56271;SDS011;42177;48.914;18.160;2023-04-01T01:11:42;6.5;;;3.7;;
56271;SDS011;42177;48.914;18.160;2023-04-01T01:16:42;6.5;;;3.7;;
56271;SDS011;42177;48.914;18.160;2023-04-01T01:21:45;5.8;;;3.7;;
56271;SDS011;42177;48.914;18.160;2023-04-01T01:26:44;5.8;;;3.7;;
56271;SDS011;42177;48.914;18.160;2023-04-01T01:31:43;4.9;;;3.7;;
56271;SDS011;42177;48.914;18.160;2023-04-01T01:36:41;4.9;;;3.7;;
56271;SDS011;42177;48.914;18.160;2023-04-01T01:41:41;5.4;;;3.2;;
56271;SDS011;42177;48.914;18.160;2023-04-01T01:46:41;5.4;;;3.2;;
56271;SDS011;42177;48.914;18.160;2023-04-01T01:51:40;6.7;;;2.9;;
56271;SDS011;42177;48.914;18.160;2023-04-01T01:56:41;6.7;;;2.9;;
56271;SDS011;42177;48.914;18.160;2023-04-01T02:01:41;4;;;2.4;;
56271;SDS011;42177;48.914;18.160;2023-04-01T02:06:42;4;;;2.4;;
56271;SDS011;42177;48.914;18.160;2023-04-01T02:11:41;6.3;;;2.9;;
56271;SDS011;42177;48.914;18.160;2023-04-01T02:16:44;6.3;;;2.9;;
56271;SDS011;42177;48.914;18.160;2023-04-01T02:21:41;7.1;;;2.9;;
56271;SDS011;42177;48.914;18.160;2023-04-01T02:26:41;7.1;;;2.9;;
56271;SDS011;42177;48.914;18.160;2023-04-01T02:31:40;5.3;;;3.2;;
56271;SDS011;42177;48.914;18.160;2023-04-01T02:36:41;5.3;;;3.2;;
56271;SDS011;42177;48.914;18.160;2023-04-01T02:41:41;5.7;;;2.9;;
56271;SDS011;42177;48.914;18.160;2023-04-01T02:46:41;5.7;;;2.9;;
56271;SDS011;42177;48.914;18.160;2023-04-01T02:51:41;6.1;;;2.7;;
56271;SDS011;42177;48.914;18.160;2023-04-01T02:56:41;6.1;;;2.7;;
56271;SDS011;42177;48.914;18.160;2023-04-01T03:01:41;5.6;;;2.6;;
56271;SDS011;42177;48.914;18.160;2023-04-01T03:06:41;5.6;;;2.6;;
56271;SDS011;42177;48.914;18.160;2023-04-01T03:11:41;5;;;2.5;;
56271;SDS011;42177;48.914;18.160;2023-04-01T03:16:41;5;;;2.5;;
56271;SDS011;42177;48.914;18.160;2023-04-01T03:21:40;9.6;;;3.2;;
56271;SDS011;42177;48.914;18.160;2023-04-01T03:26:40;9.6;;;3.2;;
56271;SDS011;42177;48.914;18.160;2023-04-01T03:31:41;6.5;;;3.6;;
56271;SDS011;42177;48.914;18.160;2023-04-01T03:36:41;6.5;;;3.6;;
56271;SDS011;42177;48.914;18.160;2023-04-01T03:41:40;6;;;3.7;;
56271;SDS011;42177;48.914;18.160;2023-04-01T03:46:41;6;;;3.7;;
56271;SDS011;42177;48.914;18.160;2023-04-01T03:51:41;5.5;;;3.7;;
56271;SDS011;42177;48.914;18.160;2023-04-01T03:56:41;5.5;;;3.7;;
56271;SDS011;42177;48.914;18.160;2023-04-01T04:01:41;5.4;;;3.2;;
56271;SDS011;42177;48.914;18.160;2023-04-01T04:06:41;5.4;;;3.2;;
56271;SDS011;42177;48.914;18.160;2023-04-01T04:11:41;4.8;;;2.8;;
56271;SDS011;42177;48.914;18.160;2023-04-01T04:16:41;4.8;;;2.8;;
56271;SDS011;42177;48.914;18.160;2023-04-01T04:21:41;3.2;;;2.2;;
56271;SDS011;42177;48.914;18.160;2023-04-01T04:26:41;3.2;;;2.2;;
56271;SDS011;42177;48.914;18.160;2023-04-01T04:31:41;4.2;;;2.7;;
56271;SDS011;42177;48.914;18.160;2023-04-01T04:36:41;4.2;;;2.7;;
56271;SDS011;42177;48.914;18.160;2023-04-01T04:41:41;3.3;;;1.8;;
56271;SDS011;42177;48.914;18.160;2023-04-01T04:46:41;3.3;;;1.8;;
56271;SDS011;42177;48.914;18.160;2023-04-01T04:51:41;3.7;;;1.5;;
56271;SDS011;42177;48.914;18.160;2023-04-01T04:56:41;3.7;;;1.5;;
56271;SDS011;42177;48.914;18.160;2023-04-01T05:01:41;3.5;;;1.4;;
56271;SDS011;42177;48.914;18.160;2023-04-01T05:06:42;3.5;;;1.4;;
56271;SDS011;42177;48.914;18.160;2023-04-01T05:11:41;2.3;;;1.4;;
56271;SDS011;42177;48.914;18.160;2023-04-01T05:16:41;2.3;;;1.4;;
56271;SDS011;42177;48.914;18.160;2023-04-01T05:21:41;1.7;;;1;;
56271;SDS011;42177;48.914;18.160;2023-04-01T05:26:41;1.7;;;1;;
56271;SDS011;42177;48.914;18.160;2023-04-01T05:31:41;3.1;;;1.4;;
56271;SDS011;42177;48.914;18.160;2023-04-01T05:36:41;3.1;;;1.4;;
56271;SDS011;42177;48.914;18.160;2023-04-01T05:41:41;1.8;;;1;;
56271;SDS011;42177;48.914;18.160;2023-04-01T05:46:41;1.8;;;1;;
56271;SDS011;42177;48.914;18.160;2023-04-01T05:51:41;4.3;;;1.3;;
56271;SDS011;42177;48.914;18.160;2023-04-01T05:56:41;4.3;;;1.3;;
56271;SDS011;42177;48.914;18.160;2023-04-01T06:01:41;1.7;;;1;;
56271;SDS011;42177;48.914;18.160;2023-04-01T06:06:41;1.7;;;1;;
56271;SDS011;42177;48.914;18.160;2023-04-01T06:11:43;4.8;;;2.1;;
56271;SDS011;42177;48.914;18.160;2023-04-01T06:16:44;4.8;;;2.1;;
56271;SDS011;42177;48.914;18.160;2023-04-01T06:21:53;3.6;;;1.2;;
56271;SDS011;42177;48.914;18.160;2023-04-01T06:26:42;3.6;;;1.2;;
56271;SDS011;42177;48.914;18.160;2023-04-01T06:31:46;3.1;;;1.1;;
56271;SDS011;42177;48.914;18.160;2023-04-01T06:36:46;3.1;;;1.1;;
56271;SDS011;42177;48.914;18.160;2023-04-01T06:42:15;2.1;;;0.9;;
56271;SDS011;42177;48.914;18.160;2023-04-01T06:46:43;2.1;;;0.9;;
56271;SDS011;42177;48.914;18.160;2023-04-01T06:51:43;2.6;;;1;;
56271;SDS011;42177;48.914;18.160;2023-04-01T06:56:41;2.6;;;1;;
56271;SDS011;42177;48.914;18.160;2023-04-01T07:01:41;2.7;;;0.9;;
56271;SDS011;42177;48.914;18.160;2023-04-01T07:06:42;2.7;;;0.9;;
56271;SDS011;42177;48.914;18.160;2023-04-01T07:11:41;2.7;;;1.2;;
56271;SDS011;42177;48.914;18.160;2023-04-01T07:16:42;2.7;;;1.2;;
56271;SDS011;42177;48.914;18.160;2023-04-01T09:15:32;2.4;;;1.4;;
56271;SDS011;42177;48.914;18.160;2023-04-01T09:20:17;2.4;;;1.4;;
56271;SDS011;42177;48.914;18.160;2023-04-01T09:25:48;1.9;;;1.4;;
56271;SDS011;42177;48.914;18.160;2023-04-01T09:30:19;1.9;;;1.4;;
56271;SDS011;42177;48.914;18.160;2023-04-01T09:35:20;3.3;;;1.3;;
56271;SDS011;42177;48.914;18.160;2023-04-01T09:40:14;3.3;;;1.3;;
56271;SDS011;42177;48.914;18.160;2023-04-01T09:45:17;2.5;;;1.3;;
56271;SDS011;42177;48.914;18.160;2023-04-01T09:50:16;2.5;;;1.3;;
56271;SDS011;42177;48.914;18.160;2023-04-01T09:55:18;3.1;;;1.6;;
56271;SDS011;42177;48.914;18.160;2023-04-01T10:00:32;3.1;;;1.6;;
56271;SDS011;42177;48.914;18.160;2023-04-01T10:05:22;2.5;;;1.6;;
56271;SDS011;42177;48.914;18.160;2023-04-01T10:11:23;2.5;;;1.6;;
56271;SDS011;42177;48.914;18.160;2023-04-01T10:16:25;2.6;;;1.5;;
56271;SDS011;42177;48.914;18.160;2023-04-01T10:20:20;2.6;;;1.5;;
56271;SDS011;42177;48.914;18.160;2023-04-01T10:25:18;3.1;;;1.8;;
56271;SDS011;42177;48.914;18.160;2023-04-01T10:30:19;3.1;;;1.8;;
56271;SDS011;42177;48.914;18.160;2023-04-01T10:35:19;3.3;;;1.8;;
56271;SDS011;42177;48.914;18.160;2023-04-01T10:40:29;3.3;;;1.8;;
56271;SDS011;42177;48.914;18.160;2023-04-01T10:45:19;3;;;1.8;;
56271;SDS011;42177;48.914;18.160;2023-04-01T10:50:17;3;;;1.8;;
56271;SDS011;42177;48.914;18.160;2023-04-01T10:55:19;2.7;;;1.4;;
56271;SDS011;42177;48.914;18.160;2023-04-01T11:00:18;2.7;;;1.4;;
56271;SDS011;42177;48.914;18.160;2023-04-01T11:10:22;3;;;1.7;;
56271;SDS011;42177;48.914;18.160;2023-04-01T11:20:25;3.4;;;1.6;;
56271;SDS011;42177;48.914;18.160;2023-04-01T11:25:19;3.7;;;1.7;;
56271;SDS011;42177;48.914;18.160;2023-04-01T11:30:15;3.7;;;1.7;;
56271;SDS011;42177;48.914;18.160;2023-04-01T11:35:20;3.2;;;2;;
56271;SDS011;42177;48.914;18.160;2023-04-01T11:40:17;3.2;;;2;;
56271;SDS011;42177;48.914;18.160;2023-04-01T11:45:17;2.8;;;1.6;;
56271;SDS011;42177;48.914;18.160;2023-04-01T11:50:15;2.8;;;1.6;;
56271;SDS011;42177;48.914;18.160;2023-04-01T11:55:18;4.2;;;1.6;;
56271;SDS011;42177;48.914;18.160;2023-04-01T12:00:18;4.2;;;1.6;;
56271;SDS011;42177;48.914;18.160;2023-04-01T12:05:18;5;;;2.1;;
56271;SDS011;42177;48.914;18.160;2023-04-01T12:10:16;5;;;2.1;;
56271;SDS011;42177;48.914;18.160;2023-04-01T12:15:17;3.3;;;1.7;;
56271;SDS011;42177;48.914;18.160;2023-04-01T12:20:20;3.3;;;1.7;;
56271;SDS011;42177;48.914;18.160;2023-04-01T12:25:19;6.6;;;2.4;;
56271;SDS011;42177;48.914;18.160;2023-04-01T12:30:21;6.6;;;2.4;;
56271;SDS011;42177;48.914;18.160;2023-04-01T12:35:18;3.4;;;1.5;;
56271;SDS011;42177;48.914;18.160;2023-04-01T12:40:20;3.4;;;1.5;;
56271;SDS011;42177;48.914;18.160;2023-04-01T12:45:17;3.8;;;1.8;;
56271;SDS011;42177;48.914;18.160;2023-04-01T12:50:16;3.8;;;1.8;;
56271;SDS011;42177;48.914;18.160;2023-04-01T12:55:18;2.5;;;1.6;;
56271;SDS011;42177;48.914;18.160;2023-04-01T13:00:32;2.5;;;1.6;;
56271;SDS011;42177;48.914;18.160;2023-04-01T13:05:15;3.2;;;1.5;;
56271;SDS011;42177;48.914;18.160;2023-04-01T13:10:17;3.2;;;1.5;;
56271;SDS011;42177;48.914;18.160;2023-04-01T13:15:30;3.7;;;1.7;;
56271;SDS011;42177;48.914;18.160;2023-04-01T13:20:14;3.7;;;1.7;;
56271;SDS011;42177;48.914;18.160;2023-04-01T13:25:15;3.8;;;1.8;;
56271;SDS011;42177;48.914;18.160;2023-04-01T13:30:19;3.8;;;1.8;;
56271;SDS011;42177;48.914;18.160;2023-04-01T13:35:17;2.3;;;1.4;;
56271;SDS011;42177;48.914;18.160;2023-04-01T13:40:22;2.3;;;1.4;;
56271;SDS011;42177;48.914;18.160;2023-04-01T13:45:14;2.7;;;1.7;;
56271;SDS011;42177;48.914;18.160;2023-04-01T13:50:17;2.7;;;1.7;;
56271;SDS011;42177;48.914;18.160;2023-04-01T13:55:21;3.3;;;1.4;;
56271;SDS011;42177;48.914;18.160;2023-04-01T14:00:17;3.3;;;1.4;;
56271;SDS011;42177;48.914;18.160;2023-04-01T14:05:18;2;;;1.2;;
56271;SDS011;42177;48.914;18.160;2023-04-01T14:10:17;2;;;1.2;;
56271;SDS011;42177;48.914;18.160;2023-04-01T14:15:19;2.3;;;1.3;;
56271;SDS011;42177;48.914;18.160;2023-04-01T14:20:17;2.3;;;1.3;;
56271;SDS011;42177;48.914;18.160;2023-04-01T14:25:21;1.8;;;1.2;;
56271;SDS011;42177;48.914;18.160;2023-04-01T14:30:19;1.8;;;1.2;;
56271;SDS011;42177;48.914;18.160;2023-04-01T14:35:19;2.2;;;1.4;;
56271;SDS011;42177;48.914;18.160;2023-04-01T14:40:16;2.2;;;1.4;;
56271;SDS011;42177;48.914;18.160;2023-04-01T14:50:14;2.1;;;1.6;;
56271;SDS011;42177;48.914;18.160;2023-04-01T14:55:24;2.5;;;1.6;;
56271;SDS011;42177;48.914;18.160;2023-04-01T15:00:14;2.5;;;1.6;;
56271;SDS011;42177;48.914;18.160;2023-04-01T15:05:15;5.7;;;2.9;;
56271;SDS011;42177;48.914;18.160;2023-04-01T15:10:18;5.7;;;2.9;;
56271;SDS011;42177;48.914;18.160;2023-04-01T15:15:16;1.7;;;1.2;;
56271;SDS011;42177;48.914;18.160;2023-04-01T15:20:17;1.7;;;1.2;;
56271;SDS011;42177;48.914;18.160;2023-04-01T15:25:19;2.6;;;1.4;;
56271;SDS011;42177;48.914;18.160;2023-04-01T15:30:16;2.6;;;1.4;;
56271;SDS011;42177;48.914;18.160;2023-04-01T15:35:17;3.3;;;1.7;;
56271;SDS011;42177;48.914;18.160;2023-04-01T15:40:15;3.3;;;1.7;;
56271;SDS011;42177;48.914;18.160;2023-04-01T15:45:18;1.9;;;1.5;;
56271;SDS011;42177;48.914;18.160;2023-04-01T15:51:16;1.9;;;1.5;;
56271;SDS011;42177;48.914;18.160;2023-04-01T15:55:17;3.6;;;1.5;;
56271;SDS011;42177;48.914;18.160;2023-04-01T16:00:20;3.6;;;1.5;;
56271;SDS011;42177;48.914;18.160;2023-04-01T16:05:22;3;;;1.7;;
56271;SDS011;42177;48.914;18.160;2023-04-01T16:11:19;3;;;1.7;;
56271;SDS011;42177;48.914;18.160;2023-04-01T16:15:16;2.3;;;1.5;;
56271;SDS011;42177;48.914;18.160;2023-04-01T16:20:17;2.3;;;1.5;;
56271;SDS011;42177;48.914;18.160;2023-04-01T16:25:17;2.2;;;1.5;;
56271;SDS011;42177;48.914;18.160;2023-04-01T16:30:24;2.2;;;1.5;;
56271;SDS011;42177;48.914;18.160;2023-04-01T16:35:16;2.9;;;1.6;;
56271;SDS011;42177;48.914;18.160;2023-04-01T16:40:16;2.9;;;1.6;;
56271;SDS011;42177;48.914;18.160;2023-04-01T16:45:16;4.1;;;2;;
56271;SDS011;42177;48.914;18.160;2023-04-01T16:50:14;4.1;;;2;;
56271;SDS011;42177;48.914;18.160;2023-04-01T16:55:15;2.6;;;1.8;;
56271;SDS011;42177;48.914;18.160;2023-04-01T17:00:15;2.6;;;1.8;;
56271;SDS011;42177;48.914;18.160;2023-04-01T17:05:13;2.9;;;1.9;;
56271;SDS011;42177;48.914;18.160;2023-04-01T17:10:18;2.9;;;1.9;;
56271;SDS011;42177;48.914;18.160;2023-04-01T17:15:16;2;;;1.4;;
56271;SDS011;42177;48.914;18.160;2023-04-01T17:20:19;2;;;1.4;;
56271;SDS011;42177;48.914;18.160;2023-04-01T17:25:19;4.2;;;1.8;;
56271;SDS011;42177;48.914;18.160;2023-04-01T17:30:19;4.2;;;1.8;;
56271;SDS011;42177;48.914;18.160;2023-04-01T17:35:14;4.4;;;2.5;;
56271;SDS011;42177;48.914;18.160;2023-04-01T17:40:17;4.4;;;2.5;;
56271;SDS011;42177;48.914;18.160;2023-04-01T17:45:18;4.3;;;2.5;;
56271;SDS011;42177;48.914;18.160;2023-04-01T17:50:17;4.3;;;2.5;;
56271;SDS011;42177;48.914;18.160;2023-04-01T17:55:26;2.3;;;1.4;;
56271;SDS011;42177;48.914;18.160;2023-04-01T18:00:17;2.3;;;1.4;;
56271;SDS011;42177;48.914;18.160;2023-04-01T18:05:19;4.5;;;2.4;;
56271;SDS011;42177;48.914;18.160;2023-04-01T18:10:17;4.5;;;2.4;;
56271;SDS011;42177;48.914;18.160;2023-04-01T18:15:16;9.5;;;6.2;;
56271;SDS011;42177;48.914;18.160;2023-04-01T18:20:18;9.5;;;6.2;;
56271;SDS011;42177;48.914;18.160;2023-04-01T18:25:17;29.9;;;19.3;;
56271;SDS011;42177;48.914;18.160;2023-04-01T18:30:14;29.9;;;19.3;;
56271;SDS011;42177;48.914;18.160;2023-04-01T18:35:16;99.6;;;65.3;;
56271;SDS011;42177;48.914;18.160;2023-04-01T18:40:17;99.6;;;65.3;;
56271;SDS011;42177;48.914;18.160;2023-04-01T18:45:17;70.8;;;43.7;;
56271;SDS011;42177;48.914;18.160;2023-04-01T18:50:15;70.8;;;43.7;;
56271;SDS011;42177;48.914;18.160;2023-04-01T18:55:18;13.2;;;8.1;;
56271;SDS011;42177;48.914;18.160;2023-04-01T19:00:14;13.2;;;8.1;;
56271;SDS011;42177;48.914;18.160;2023-04-01T19:05:14;12.5;;;7.3;;
56271;SDS011;42177;48.914;18.160;2023-04-01T19:10:16;12.5;;;7.3;;
56271;SDS011;42177;48.914;18.160;2023-04-01T19:15:18;13.5;;;7.1;;
56271;SDS011;42177;48.914;18.160;2023-04-01T19:20:16;13.5;;;7.1;;
56271;SDS011;42177;48.914;18.160;2023-04-01T19:25:15;10;;;6.8;;
56271;SDS011;42177;48.914;18.160;2023-04-01T19:30:17;10;;;6.8;;
56271;SDS011;42177;48.914;18.160;2023-04-01T19:35:17;10.8;;;6.5;;
56271;SDS011;42177;48.914;18.160;2023-04-01T19:40:17;10.8;;;6.5;;
56271;SDS011;42177;48.914;18.160;2023-04-01T19:45:20;8.6;;;6.2;;
56271;SDS011;42177;48.914;18.160;2023-04-01T19:50:18;8.6;;;6.2;;
56271;SDS011;42177;48.914;18.160;2023-04-01T19:55:17;13;;;9.1;;
56271;SDS011;42177;48.914;18.160;2023-04-01T20:00:15;13;;;9.1;;
56271;SDS011;42177;48.914;18.160;2023-04-01T20:05:25;16.5;;;11.5;;
56271;SDS011;42177;48.914;18.160;2023-04-01T20:10:14;16.5;;;11.5;;
56271;SDS011;42177;48.914;18.160;2023-04-01T20:15:22;16.7;;;12.2;;
56271;SDS011;42177;48.914;18.160;2023-04-01T20:20:15;16.7;;;12.2;;
56271;SDS011;42177;48.914;18.160;2023-04-01T20:25:15;15;;;10.3;;
56271;SDS011;42177;48.914;18.160;2023-04-01T20:30:19;15;;;10.3;;
56271;SDS011;42177;48.914;18.160;2023-04-01T20:35:18;12.7;;;9.2;;
56271;SDS011;42177;48.914;18.160;2023-04-01T20:40:17;12.7;;;9.2;;
56271;SDS011;42177;48.914;18.160;2023-04-01T20:45:17;16.1;;;11.2;;
56271;SDS011;42177;48.914;18.160;2023-04-01T20:50:15;16.1;;;11.2;;
56271;SDS011;42177;48.914;18.160;2023-04-01T20:55:19;16.9;;;11;;
56271;SDS011;42177;48.914;18.160;2023-04-01T21:00:24;16.9;;;11;;
56271;SDS011;42177;48.914;18.160;2023-04-01T21:05:54;18.4;;;13.2;;
56271;SDS011;42177;48.914;18.160;2023-04-01T21:10:19;18.4;;;13.2;;
56271;SDS011;42177;48.914;18.160;2023-04-01T21:15:19;17.5;;;13.4;;
56271;SDS011;42177;48.914;18.160;2023-04-01T21:20:18;17.5;;;13.4;;
56271;SDS011;42177;48.914;18.160;2023-04-01T21:25:21;13.3;;;10.2;;
56271;SDS011;42177;48.914;18.160;2023-04-01T21:30:19;13.3;;;10.2;;
56271;SDS011;42177;48.914;18.160;2023-04-01T21:35:18;18.8;;;13.2;;
56271;SDS011;42177;48.914;18.160;2023-04-01T21:40:34;18.8;;;13.2;;
56271;SDS011;42177;48.914;18.160;2023-04-01T21:45:35;21;;;14.2;;
56271;SDS011;42177;48.914;18.160;2023-04-01T21:50:47;21;;;14.2;;
56271;SDS011;42177;48.914;18.160;2023-04-01T21:55:20;18.4;;;12.8;;
56271;SDS011;42177;48.914;18.160;2023-04-01T22:00:17;18.4;;;12.8;;
56271;SDS011;42177;48.914;18.160;2023-04-01T22:05:14;20.1;;;15.2;;
56271;SDS011;42177;48.914;18.160;2023-04-01T22:10:16;20.1;;;15.2;;
56271;SDS011;42177;48.914;18.160;2023-04-01T22:15:16;19;;;14;;
56271;SDS011;42177;48.914;18.160;2023-04-01T22:20:16;19;;;14;;
56271;SDS011;42177;48.914;18.160;2023-04-01T22:25:14;19.3;;;14.7;;
56271;SDS011;42177;48.914;18.160;2023-04-01T22:30:16;19.3;;;14.7;;
56271;SDS011;42177;48.914;18.160;2023-04-01T22:35:17;15;;;10.7;;
56271;SDS011;42177;48.914;18.160;2023-04-01T22:40:17;15;;;10.7;;
56271;SDS011;42177;48.914;18.160;2023-04-01T22:45:18;17.5;;;11.3;;
56271;SDS011;42177;48.914;18.160;2023-04-01T22:50:14;17.5;;;11.3;;
56271;SDS011;42177;48.914;18.160;2023-04-01T22:55:15;13.4;;;9.7;;
56271;SDS011;42177;48.914;18.160;2023-04-01T23:00:14;13.4;;;9.7;;
56271;SDS011;42177;48.914;18.160;2023-04-01T23:05:15;15;;;10;;
56271;SDS011;42177;48.914;18.160;2023-04-01T23:10:15;15;;;10;;
56271;SDS011;42177;48.914;18.160;2023-04-01T23:15:14;18.7;;;13.7;;
56271;SDS011;42177;48.914;18.160;2023-04-01T23:20:18;18.7;;;13.7;;
56271;SDS011;42177;48.914;18.160;2023-04-01T23:25:16;19.8;;;13.4;;
56271;SDS011;42177;48.914;18.160;2023-04-01T23:30:45;19.8;;;13.4;;
56271;SDS011;42177;48.914;18.160;2023-04-01T23:35:15;20.2;;;14.5;;
56271;SDS011;42177;48.914;18.160;2023-04-01T23:40:14;20.2;;;14.5;;
56271;SDS011;42177;48.914;18.160;2023-04-01T23:45:14;22.3;;;14.9;;
56271;SDS011;42177;48.914;18.160;2023-04-01T23:50:14;22.3;;;14.9;;
56271;SDS011;42177;48.914;18.160;2023-04-01T23:55:15;17.3;;;12.6;;
